Time;durP1;ratioP1;P1;durP2;ratioP2;P2;SDS_P1;SDS_P2;PMS_P1;PMS_P2;Temp;Humidity;BMP_temperature;BMP_pressure;BME280_temperature;BME280_humidity;BME280_pressure;Samples;Min_cycle;Max_cycle;Signal;HPM_P1;HPM_P2
2021/06/28 00:01:08;;;;;;;13.88;7.68;;;;;;;;;;3583307;40;20060;-59
2021/06/28 00:03:33;;;;;;;10.15;7.28;;;;;;;;;;3585111;40;20033;-59
2021/06/28 00:05:59;;;;;;;13.90;7.70;;;;;;;;;;3581025;40;20045;-59
2021/06/28 00:08:26;;;;;;;10.10;6.80;;;;;;;;;;3583260;40;20032;-58
2021/06/28 00:10:52;;;;;;;11.00;7.30;;;;;;;;;;3582225;40;20110;-58
2021/06/28 00:13:17;;;;;;;8.70;7.82;;;;;;;;;;3583875;40;20072;-59
2021/06/28 00:15:43;;;;;;;8.45;7.65;;;;;;;;;;3583942;40;20039;-58
2021/06/28 00:18:10;;;;;;;9.70;7.18;;;;;;;;;;3584385;40;20088;-58
2021/06/28 00:20:36;;;;;;;8.48;7.53;;;;;;;;;;3582754;40;20029;-58
2021/06/28 00:23:03;;;;;;;10.73;7.43;;;;;;;;;;3583188;40;20484;-57
2021/06/28 00:25:29;;;;;;;9.30;7.10;;;;;;;;;;3582517;40;20036;-59
2021/06/28 00:27:55;;;;;;;7.30;6.45;;;;;;;;;;3574548;40;20033;-58
2021/06/28 00:30:21;;;;;;;8.10;7.03;;;;;;;;;;3581861;40;20390;-59
2021/06/28 00:32:49;;;;;;;7.65;5.97;;;;;;;;;;3583550;40;20037;-59
2021/06/28 00:35:15;;;;;;;7.40;6.55;;;;;;;;;;3584391;40;20030;-59
2021/06/28 00:37:41;;;;;;;7.85;7.05;;;;;;;;;;3583880;40;20408;-58
2021/06/28 00:40:09;;;;;;;7.10;6.35;;;;;;;;;;3583324;40;20059;-58
2021/06/28 00:42:35;;;;;;;9.15;6.45;;;;;;;;;;3581992;40;20470;-58
2021/06/28 00:45:14;;;;;;;6.75;6.13;;;;;;;;;;3573279;40;20041;-58
2021/06/28 00:47:39;;;;;;;10.57;5.45;;;;;;;;;;3583046;40;20068;-58
2021/06/28 00:50:05;;;;;;;9.75;6.00;;;;;;;;;;3582522;40;20052;-58
2021/06/28 00:52:31;;;;;;;8.32;5.38;;;;;;;;;;3582504;40;20519;-59
2021/06/28 00:54:56;;;;;;;8.25;6.70;;;;;;;;;;3583420;40;20081;-59
2021/06/28 00:57:22;;;;;;;10.90;6.03;;;;;;;;;;3583105;40;20104;-59
2021/06/28 00:59:48;;;;;;;7.85;5.88;;;;;;;;;;3582015;40;20075;-59
2021/06/28 01:02:14;;;;;;;10.80;6.25;;;;;;;;;;3580787;40;20440;-59
2021/06/28 01:04:39;;;;;;;7.97;6.63;;;;;;;;;;3583822;40;20040;-59
2021/06/28 01:07:05;;;;;;;6.50;5.90;;;;;;;;;;3581965;40;20033;-59
2021/06/28 01:09:30;;;;;;;9.07;8.05;;;;;;;;;;3583065;40;20044;-58
2021/06/28 01:11:56;;;;;;;7.88;6.68;;;;;;;;;;3583872;40;20035;-57
2021/06/28 01:14:21;;;;;;;9.57;6.53;;;;;;;;;;3582942;40;20083;-60
2021/06/28 01:16:47;;;;;;;15.05;5.82;;;;;;;;;;3581407;40;20039;-58
2021/06/28 01:19:14;;;;;;;7.72;6.90;;;;;;;;;;3582151;40;20122;-59
2021/06/28 01:21:44;;;;;;;7.22;6.13;;;;;;;;;;3582734;40;20037;-59
2021/06/28 01:24:11;;;;;;;7.13;6.45;;;;;;;;;;3582385;40;20037;-58
2021/06/28 01:26:36;;;;;;;6.68;6.05;;;;;;;;;;3584289;40;20045;-58
2021/06/28 01:29:03;;;;;;;8.43;7.03;;;;;;;;;;3583700;40;20044;-58
2021/06/28 01:31:29;;;;;;;7.53;6.82;;;;;;;;;;3582945;40;20029;-58
2021/06/28 01:33:54;;;;;;;10.57;6.85;;;;;;;;;;3583624;40;20091;-59
2021/06/28 01:36:20;;;;;;;10.07;6.90;;;;;;;;;;3581495;40;20044;-59
2021/06/28 01:38:48;;;;;;;7.13;6.00;;;;;;;;;;3582352;40;20181;-58
2021/06/28 01:41:14;;;;;;;10.98;7.75;;;;;;;;;;3575913;40;20029;-59
2021/06/28 01:43:41;;;;;;;8.35;7.45;;;;;;;;;;3583273;40;20032;-58
2021/06/28 01:46:06;;;;;;;9.00;8.10;;;;;;;;;;3584104;40;20032;-59
2021/06/28 01:48:32;;;;;;;11.27;7.28;;;;;;;;;;3580750;40;20090;-59
2021/06/28 01:50:58;;;;;;;7.90;6.90;;;;;;;;;;3581992;40;20134;-59
2021/06/28 01:53:23;;;;;;;8.13;7.32;;;;;;;;;;3581448;40;20049;-59
2021/06/28 01:55:49;;;;;;;8.27;7.53;;;;;;;;;;3581602;40;20059;-59
2021/06/28 01:58:16;;;;;;;9.45;8.35;;;;;;;;;;3583247;40;20045;-59
2021/06/28 02:00:48;;;;;;;10.98;8.75;;;;;;;;;;3581092;40;20048;-59
2021/06/28 02:03:18;;;;;;;11.40;8.18;;;;;;;;;;3577022;40;20047;-59
2021/06/28 02:05:45;;;;;;;7.38;6.68;;;;;;;;;;3583329;40;20052;-59
2021/06/28 02:08:13;;;;;;;7.90;7.10;;;;;;;;;;3581986;40;20040;-59
2021/06/28 02:10:41;;;;;;;8.65;7.75;;;;;;;;;;3581604;40;20130;-59
2021/06/28 02:13:07;;;;;;;8.05;6.95;;;;;;;;;;3581035;40;20041;-59
2021/06/28 02:15:32;;;;;;;8.13;7.22;;;;;;;;;;3584594;40;20352;-59
2021/06/28 02:17:59;;;;;;;12.13;8.23;;;;;;;;;;3585175;40;20115;-59
2021/06/28 02:20:27;;;;;;;9.20;8.30;;;;;;;;;;3576051;40;20024;-60
2021/06/28 02:22:52;;;;;;;13.00;8.00;;;;;;;;;;3582266;40;20073;-60
2021/06/28 02:25:19;;;;;;;10.13;7.93;;;;;;;;;;3583196;40;20056;-60
2021/06/28 02:27:45;;;;;;;8.30;7.32;;;;;;;;;;3573516;40;20039;-60
2021/06/28 02:30:14;;;;;;;10.23;7.60;;;;;;;;;;3582456;40;20048;-60
2021/06/28 02:32:40;;;;;;;10.73;7.40;;;;;;;;;;3582190;40;20041;-59
2021/06/28 02:35:08;;;;;;;9.55;7.65;;;;;;;;;;3581414;40;20033;-59
2021/06/28 02:37:34;;;;;;;12.05;7.95;;;;;;;;;;3573966;40;20372;-59
2021/06/28 02:40:00;;;;;;;10.63;7.53;;;;;;;;;;3583366;40;20064;-59
2021/06/28 02:42:26;;;;;;;9.63;7.15;;;;;;;;;;3581266;40;20033;-60
2021/06/28 02:44:52;;;;;;;10.07;6.88;;;;;;;;;;3580992;40;20383;-59
2021/06/28 02:47:17;;;;;;;12.02;7.88;;;;;;;;;;3582997;40;20344;-60
2021/06/28 02:49:43;;;;;;;8.75;7.85;;;;;;;;;;3583920;40;20348;-60
2021/06/28 02:52:08;;;;;;;14.23;8.10;;;;;;;;;;3578734;40;20059;-59
2021/06/28 02:54:34;;;;;;;8.07;7.22;;;;;;;;;;3579967;40;20427;-59
2021/06/28 02:56:59;;;;;;;10.38;7.57;;;;;;;;;;3583405;40;20077;-60
2021/06/28 02:59:25;;;;;;;14.55;7.70;;;;;;;;;;3574286;40;20036;-60
2021/06/28 03:01:50;;;;;;;9.80;7.60;;;;;;;;;;3581531;40;20036;-60
2021/06/28 03:04:16;;;;;;;8.82;7.93;;;;;;;;;;3582457;40;20036;-59
2021/06/28 03:06:41;;;;;;;12.63;8.35;;;;;;;;;;3582208;40;20069;-59
2021/06/28 03:09:07;;;;;;;10.90;7.20;;;;;;;;;;3581771;40;20043;-60
2021/06/28 03:11:32;;;;;;;13.60;8.50;;;;;;;;;;3582504;40;20120;-60
2021/06/28 03:13:58;;;;;;;8.55;7.63;;;;;;;;;;3583471;40;20029;-59
2021/06/28 03:16:24;;;;;;;12.18;7.72;;;;;;;;;;3581427;40;20040;-59
2021/06/28 03:18:52;;;;;;;9.27;7.45;;;;;;;;;;3582387;40;20043;-59
2021/06/28 03:21:18;;;;;;;12.57;8.35;;;;;;;;;;3583316;40;20073;-59
2021/06/28 03:23:44;;;;;;;11.95;8.38;;;;;;;;;;3582339;40;20288;-59
2021/06/28 03:26:11;;;;;;;11.35;8.32;;;;;;;;;;3581200;40;20041;-59
2021/06/28 03:28:36;;;;;;;11.30;9.60;;;;;;;;;;3581218;40;20041;-59
2021/06/28 03:31:03;;;;;;;10.38;8.65;;;;;;;;;;3582878;40;20031;-60
2021/06/28 03:33:29;;;;;;;13.93;9.18;;;;;;;;;;3574802;40;20032;-59
2021/06/28 03:35:54;;;;;;;12.95;9.43;;;;;;;;;;3582001;40;20039;-59
2021/06/28 03:38:20;;;;;;;10.45;9.02;;;;;;;;;;3580286;40;20049;-59
2021/06/28 03:40:46;;;;;;;10.00;8.43;;;;;;;;;;3582525;40;20060;-59
2021/06/28 03:43:12;;;;;;;10.00;8.38;;;;;;;;;;3582414;40;20086;-59
2021/06/28 03:45:39;;;;;;;9.82;8.93;;;;;;;;;;3581346;40;20020;-59
2021/06/28 03:48:06;;;;;;;11.20;8.80;;;;;;;;;;3580079;40;20134;-59
2021/06/28 03:50:32;;;;;;;15.27;9.65;;;;;;;;;;3581841;40;20349;-59
2021/06/28 03:52:58;;;;;;;11.35;9.55;;;;;;;;;;3581766;40;20045;-59
2021/06/28 03:55:24;;;;;;;10.95;9.48;;;;;;;;;;3582698;40;20269;-59
2021/06/28 03:57:49;;;;;;;13.52;9.77;;;;;;;;;;3575446;40;20059;-59
2021/06/28 04:00:20;;;;;;;12.27;8.23;;;;;;;;;;3581404;40;20060;-59
2021/06/28 04:02:46;;;;;;;11.02;9.32;;;;;;;;;;3579680;40;20042;-59
2021/06/28 04:05:25;;;;;;;10.23;9.02;;;;;;;;;;3583414;40;20191;-59
2021/06/28 04:07:52;;;;;;;10.27;9.23;;;;;;;;;;3582875;40;20036;-59
2021/06/28 04:10:20;;;;;;;10.40;8.65;;;;;;;;;;3582259;40;20060;-59
2021/06/28 04:12:48;;;;;;;11.07;9.35;;;;;;;;;;3582847;40;20673;-60
2021/06/28 04:15:15;;;;;;;12.68;9.63;;;;;;;;;;3583839;40;20240;-59
2021/06/28 04:17:43;;;;;;;12.43;8.45;;;;;;;;;;3583569;40;20041;-59
2021/06/28 04:20:10;;;;;;;10.95;9.15;;;;;;;;;;3581958;40;20562;-59
2021/06/28 04:22:37;;;;;;;9.60;8.60;;;;;;;;;;3581858;40;20049;-59
2021/06/28 04:25:05;;;;;;;9.98;9.05;;;;;;;;;;3584225;40;20035;-60
2021/06/28 04:27:31;;;;;;;12.25;9.18;;;;;;;;;;3582780;40;20065;-60
2021/06/28 04:29:57;;;;;;;10.57;9.13;;;;;;;;;;3582700;40;20064;-60
2021/06/28 04:32:22;;;;;;;12.35;8.85;;;;;;;;;;3581397;40;20040;-59
2021/06/28 04:34:48;;;;;;;11.27;9.20;;;;;;;;;;3582773;40;20164;-60
2021/06/28 04:37:13;;;;;;;12.65;9.30;;;;;;;;;;3583003;40;20069;-60
2021/06/28 04:39:40;;;;;;;11.00;9.40;;;;;;;;;;3582931;40;20059;-60
2021/06/28 04:42:07;;;;;;;16.63;9.18;;;;;;;;;;3585044;40;20299;-60
2021/06/28 04:44:33;;;;;;;12.80;9.55;;;;;;;;;;3581887;40;20033;-60
2021/06/28 04:46:58;;;;;;;11.90;8.80;;;;;;;;;;3581843;40;20412;-60
2021/06/28 04:49:24;;;;;;;10.85;9.77;;;;;;;;;;3584149;40;20059;-60
2021/06/28 04:51:50;;;;;;;13.60;10.18;;;;;;;;;;3582743;40;20054;-58
2021/06/28 04:54:15;;;;;;;10.85;9.75;;;;;;;;;;3581114;40;20036;-60
2021/06/28 04:56:41;;;;;;;25.63;10.10;;;;;;;;;;3583805;40;20048;-59
2021/06/28 04:59:06;;;;;;;19.90;9.93;;;;;;;;;;3573975;40;20033;-60
2021/06/28 05:01:32;;;;;;;12.63;11.38;;;;;;;;;;3583209;40;20077;-60
2021/06/28 05:03:57;;;;;;;17.23;11.38;;;;;;;;;;3584413;40;20043;-60
2021/06/28 05:06:23;;;;;;;11.82;9.65;;;;;;;;;;3582790;40;20041;-60
2021/06/28 05:08:48;;;;;;;16.25;10.15;;;;;;;;;;3583179;40;20045;-60
2021/06/28 05:11:14;;;;;;;14.70;9.57;;;;;;;;;;3583419;40;20107;-60
2021/06/28 05:13:39;;;;;;;11.00;9.90;;;;;;;;;;3581162;40;20037;-59
2021/06/28 05:16:05;;;;;;;15.63;10.52;;;;;;;;;;3583983;40;20459;-59
2021/06/28 05:18:30;;;;;;;11.02;9.93;;;;;;;;;;3583316;40;20262;-59
2021/06/28 05:20:55;;;;;;;13.52;9.95;;;;;;;;;;3582710;40;20414;-60
2021/06/28 05:23:21;;;;;;;11.48;10.07;;;;;;;;;;3583285;40;20364;-59
2021/06/28 05:25:47;;;;;;;12.07;9.00;;;;;;;;;;3584124;40;20037;-60
2021/06/28 05:28:12;;;;;;;9.60;8.68;;;;;;;;;;3582711;40;20033;-60
2021/06/28 05:30:38;;;;;;;11.40;10.30;;;;;;;;;;3575908;40;20534;-59
2021/06/28 05:33:04;;;;;;;12.75;9.50;;;;;;;;;;3576357;40;20273;-60
2021/06/28 05:35:29;;;;;;;10.38;9.30;;;;;;;;;;3583733;40;20138;-60
2021/06/28 05:37:55;;;;;;;13.52;9.32;;;;;;;;;;3583065;40;20047;-59
2021/06/28 05:40:20;;;;;;;9.68;8.70;;;;;;;;;;3576968;40;20041;-59
2021/06/28 05:42:47;;;;;;;12.40;9.02;;;;;;;;;;3581926;40;20405;-59
2021/06/28 05:45:13;;;;;;;9.48;8.40;;;;;;;;;;3580028;40;20039;-59
2021/06/28 05:47:39;;;;;;;9.77;8.88;;;;;;;;;;3581736;40;20052;-59
2021/06/28 05:50:07;;;;;;;11.85;9.98;;;;;;;;;;3582282;40;20304;-59
2021/06/28 05:52:34;;;;;;;10.95;9.88;;;;;;;;;;3575430;40;20033;-59
2021/06/28 05:58:40;;;;;;;11.52;9.85;;;;;;;;;;3577096;40;20045;-59
2021/06/28 06:01:07;;;;;;;15.13;9.40;;;;;;;;;;3583349;40;20138;-59
2021/06/28 06:03:32;;;;;;;10.90;9.27;;;;;;;;;;3581685;40;20137;-59
2021/06/28 06:05:58;;;;;;;11.05;9.93;;;;;;;;;;3581663;40;20356;-59
2021/06/28 06:08:24;;;;;;;9.93;8.85;;;;;;;;;;3581874;40;20174;-59
2021/06/28 06:10:57;;;;;;;12.93;9.13;;;;;;;;;;3580620;40;20391;-59
2021/06/28 06:13:23;;;;;;;10.07;9.00;;;;;;;;;;3583785;40;20839;-59
2021/06/28 06:15:49;;;;;;;9.90;8.75;;;;;;;;;;3582319;40;20043;-59
2021/06/28 06:18:15;;;;;;;11.02;9.25;;;;;;;;;;3573378;40;20044;-57
2021/06/28 06:20:41;;;;;;;11.10;9.38;;;;;;;;;;3582027;40;20051;-58
2021/06/28 06:23:07;;;;;;;10.40;9.32;;;;;;;;;;3581383;40;20060;-57
2021/06/28 06:25:33;;;;;;;10.57;9.38;;;;;;;;;;3581396;40;20040;-57
2021/06/28 06:27:58;;;;;;;11.15;9.95;;;;;;;;;;3581888;40;20024;-57
2021/06/28 06:30:24;;;;;;;17.13;9.02;;;;;;;;;;3581960;40;20544;-58
2021/06/28 06:32:50;;;;;;;10.70;9.60;;;;;;;;;;3582617;40;20025;-58
2021/06/28 06:35:20;;;;;;;12.00;9.63;;;;;;;;;;3582544;40;20080;-58
2021/06/28 06:37:46;;;;;;;11.20;9.02;;;;;;;;;;3581159;40;20045;-58
2021/06/28 06:40:12;;;;;;;14.70;8.60;;;;;;;;;;3582417;40;20088;-58
2021/06/28 06:42:38;;;;;;;9.95;8.95;;;;;;;;;;3583113;40;20029;-58
2021/06/28 06:45:05;;;;;;;11.73;9.40;;;;;;;;;;3581365;40;20264;-57
2021/06/28 06:47:30;;;;;;;9.88;8.57;;;;;;;;;;3582097;40;20041;-57
2021/06/28 06:49:56;;;;;;;9.93;8.93;;;;;;;;;;3581947;40;20047;-57
2021/06/28 06:52:22;;;;;;;9.90;8.80;;;;;;;;;;3581767;40;20060;-58
2021/06/28 06:54:47;;;;;;;10.32;8.98;;;;;;;;;;3581313;40;20044;-58
2021/06/28 06:57:13;;;;;;;12.95;9.45;;;;;;;;;;3581150;40;20037;-58
2021/06/28 06:59:38;;;;;;;9.88;8.88;;;;;;;;;;3582072;40;20085;-59
2021/06/28 07:02:04;;;;;;;9.73;8.73;;;;;;;;;;3584364;40;20115;-59
2021/06/28 07:04:32;;;;;;;9.90;8.90;;;;;;;;;;3581801;40;20037;-60
2021/06/28 07:06:58;;;;;;;9.07;8.18;;;;;;;;;;3580878;40;20154;-59
2021/06/28 07:09:24;;;;;;;9.38;7.80;;;;;;;;;;3582199;40;20037;-60
2021/06/28 07:11:49;;;;;;;10.85;7.25;;;;;;;;;;3582901;40;20039;-59
2021/06/28 07:14:15;;;;;;;8.13;7.15;;;;;;;;;;3579679;40;20045;-59
2021/06/28 07:16:40;;;;;;;7.95;6.20;;;;;;;;;;3581387;40;20045;-58
2021/06/28 07:19:06;;;;;;;7.93;7.13;;;;;;;;;;3582865;40;20033;-58
2021/06/28 07:21:34;;;;;;;7.93;6.53;;;;;;;;;;3584085;40;20273;-59
2021/06/28 07:24:00;;;;;;;12.07;6.50;;;;;;;;;;3582868;40;20125;-59
2021/06/28 07:26:25;;;;;;;9.75;7.10;;;;;;;;;;3582608;40;20048;-60
2021/06/28 07:28:52;;;;;;;7.00;6.30;;;;;;;;;;3579491;40;20423;-57
2021/06/28 07:31:18;;;;;;;7.70;6.93;;;;;;;;;;3582657;40;20090;-58
2021/06/28 07:33:43;;;;;;;11.38;6.00;;;;;;;;;;3583176;40;20538;-59
2021/06/28 07:36:09;;;;;;;6.90;6.00;;;;;;;;;;3581514;40;20045;-58
2021/06/28 07:38:35;;;;;;;12.02;6.60;;;;;;;;;;3581052;40;20061;-59
2021/06/28 07:41:00;;;;;;;6.50;5.90;;;;;;;;;;3582607;40;20051;-58
2021/06/28 07:43:26;;;;;;;7.18;5.97;;;;;;;;;;3583414;40;20036;-59
2021/06/28 07:45:51;;;;;;;7.43;6.35;;;;;;;;;;3584271;40;20051;-58
2021/06/28 07:48:17;;;;;;;8.80;6.13;;;;;;;;;;3584612;40;20497;-58
2021/06/28 07:50:46;;;;;;;7.57;5.70;;;;;;;;;;3581817;40;20053;-59
2021/06/28 07:53:12;;;;;;;7.07;5.60;;;;;;;;;;3583256;40;20036;-59
2021/06/28 07:55:37;;;;;;;5.45;4.63;;;;;;;;;;3583716;40;20036;-59
2021/06/28 07:58:04;;;;;;;6.18;4.93;;;;;;;;;;3582171;40;20032;-59
2021/06/28 08:00:29;;;;;;;6.00;5.30;;;;;;;;;;3581022;40;20125;-59
2021/06/28 08:02:55;;;;;;;5.38;4.75;;;;;;;;;;3582076;40;20498;-58
2021/06/28 08:05:20;;;;;;;5.68;5.03;;;;;;;;;;3582589;40;20427;-58
2021/06/28 08:07:46;;;;;;;6.15;5.30;;;;;;;;;;3584021;40;20122;-58
2021/06/28 08:10:14;;;;;;;8.32;5.65;;;;;;;;;;3583472;40;20037;-58
2021/06/28 08:12:41;;;;;;;6.30;5.65;;;;;;;;;;3583083;40;20063;-58
2021/06/28 08:15:09;;;;;;;6.20;4.97;;;;;;;;;;3582238;40;20037;-62
2021/06/28 08:17:34;;;;;;;7.32;4.68;;;;;;;;;;3581980;40;20036;-58
2021/06/28 08:20:00;;;;;;;5.57;5.07;;;;;;;;;;3582706;40;20352;-58
2021/06/28 08:22:26;;;;;;;7.57;5.75;;;;;;;;;;3582878;40;20063;-58
2021/06/28 08:24:51;;;;;;;6.18;4.43;;;;;;;;;;3581595;40;20037;-59
2021/06/28 08:27:17;;;;;;;5.20;3.88;;;;;;;;;;3584392;40;20056;-58
2021/06/28 08:29:43;;;;;;;5.00;4.30;;;;;;;;;;3583271;40;20036;-58
2021/06/28 08:32:08;;;;;;;4.85;4.13;;;;;;;;;;3583579;40;20037;-59
2021/06/28 08:34:34;;;;;;;5.65;4.60;;;;;;;;;;3581779;40;20041;-59
2021/06/28 08:36:59;;;;;;;5.15;4.65;;;;;;;;;;3580720;40;20069;-59
2021/06/28 08:39:25;;;;;;;6.03;4.60;;;;;;;;;;3583119;40;20407;-59
2021/06/28 08:41:55;;;;;;;6.45;5.05;;;;;;;;;;3583340;40;20029;-59
2021/06/28 08:44:22;;;;;;;5.35;3.88;;;;;;;;;;3582263;40;20033;-59
2021/06/28 08:46:48;;;;;;;5.45;4.00;;;;;;;;;;3583189;40;20040;-60
2021/06/28 08:49:14;;;;;;;6.03;4.07;;;;;;;;;;3582142;40;20063;-59
2021/06/28 08:51:41;;;;;;;4.32;3.40;;;;;;;;;;3584695;40;20029;-59
2021/06/28 08:54:12;;;;;;;4.22;2.65;;;;;;;;;;3582667;40;20025;-59
2021/06/28 08:56:40;;;;;;;4.60;2.70;;;;;;;;;;3581761;40;20047;-59
2021/06/28 08:59:06;;;;;;;3.60;3.00;;;;;;;;;;3582691;40;20037;-59
2021/06/28 09:01:33;;;;;;;3.70;2.80;;;;;;;;;;3583468;40;20032;-59
2021/06/28 09:03:59;;;;;;;5.88;3.40;;;;;;;;;;3584113;40;20113;-59
2021/06/28 09:06:26;;;;;;;6.28;5.28;;;;;;;;;;3582023;40;20057;-59
2021/06/28 09:09:01;;;;;;;4.40;2.95;;;;;;;;;;3581502;40;20037;-59
2021/06/28 09:11:27;;;;;;;4.20;3.10;;;;;;;;;;3582599;40;20041;-58
2021/06/28 09:13:55;;;;;;;4.72;2.90;;;;;;;;;;3583306;40;20052;-57
2021/06/28 09:16:28;;;;;;;3.67;2.90;;;;;;;;;;3582563;40;20272;-59
2021/06/28 09:19:09;;;;;;;4.55;3.00;;;;;;;;;;3582306;40;20040;-59
2021/06/28 09:21:38;;;;;;;4.72;3.03;;;;;;;;;;3583022;40;20048;-59
2021/06/28 09:24:05;;;;;;;4.20;3.20;;;;;;;;;;3582746;40;20033;-58
2021/06/28 09:26:34;;;;;;;3.67;2.60;;;;;;;;;;3581651;40;20036;-59
2021/06/28 09:29:04;;;;;;;3.83;2.50;;;;;;;;;;3581783;40;20037;-60
2021/06/28 09:31:41;;;;;;;4.18;3.00;;;;;;;;;;3583213;40;20122;-60
2021/06/28 09:34:08;;;;;;;5.05;3.05;;;;;;;;;;3582625;40;20360;-58
2021/06/28 09:36:51;;;;;;;5.32;2.95;;;;;;;;;;3583370;40;20069;-59
2021/06/28 09:39:20;;;;;;;5.00;3.17;;;;;;;;;;3583781;40;20037;-60
2021/06/28 09:41:46;;;;;;;4.53;3.10;;;;;;;;;;3583930;40;20033;-59
2021/06/28 09:44:12;;;;;;;5.15;2.72;;;;;;;;;;3583753;40;20033;-59
2021/06/28 09:46:37;;;;;;;4.30;3.22;;;;;;;;;;3584704;40;20044;-59
2021/06/28 09:49:04;;;;;;;6.38;3.35;;;;;;;;;;3583537;40;20503;-57
2021/06/28 09:51:35;;;;;;;4.38;2.90;;;;;;;;;;3582212;40;20041;-59
2021/06/28 09:54:07;;;;;;;4.65;3.75;;;;;;;;;;3581348;40;20134;-60
2021/06/28 09:56:34;;;;;;;5.13;4.05;;;;;;;;;;3581915;40;20047;-59
2021/06/28 09:59:22;;;;;;;5.00;4.47;;;;;;;;;;3582267;40;20092;-60
2021/06/28 10:01:49;;;;;;;6.93;5.03;;;;;;;;;;3581976;40;20044;-60
2021/06/28 10:04:37;;;;;;;8.98;3.65;;;;;;;;;;3583092;40;20046;-60
2021/06/28 10:07:22;;;;;;;9.85;5.25;;;;;;;;;;3583062;40;20136;-60
2021/06/28 10:10:25;;;;;;;5.20;3.72;;;;;;;;;;3582584;40;20035;-60
2021/06/28 10:12:56;;;;;;;4.60;3.88;;;;;;;;;;3582844;40;20035;-60
2021/06/28 10:15:24;;;;;;;5.05;3.95;;;;;;;;;;3581974;40;20033;-60
2021/06/28 10:17:50;;;;;;;7.50;4.05;;;;;;;;;;3581118;40;20052;-60
2021/06/28 10:20:19;;;;;;;5.22;4.22;;;;;;;;;;3581373;40;20138;-61
2021/06/28 10:22:46;;;;;;;5.85;4.25;;;;;;;;;;3573530;40;20044;-60
2021/06/28 10:25:14;;;;;;;5.57;4.28;;;;;;;;;;3580451;40;20032;-60
2021/06/28 10:27:40;;;;;;;7.25;4.05;;;;;;;;;;3582113;40;20025;-60
2021/06/28 10:30:11;;;;;;;12.65;4.30;;;;;;;;;;3584282;40;20036;-60
2021/06/28 10:32:38;;;;;;;7.90;4.75;;;;;;;;;;3583564;40;20060;-60
2021/06/28 10:35:05;;;;;;;4.57;3.80;;;;;;;;;;3581476;40;20047;-60
2021/06/28 10:37:35;;;;;;;8.65;4.88;;;;;;;;;;3583026;40;20039;-60
2021/06/28 10:40:10;;;;;;;6.97;4.65;;;;;;;;;;3582131;40;20024;-61
2021/06/28 10:42:41;;;;;;;5.95;4.22;;;;;;;;;;3583994;40;20044;-61
2021/06/28 10:45:10;;;;;;;5.30;3.75;;;;;;;;;;3583073;40;20040;-61
2021/06/28 10:47:40;;;;;;;8.07;3.88;;;;;;;;;;3580417;40;20029;-61
2021/06/28 10:50:08;;;;;;;8.95;4.25;;;;;;;;;;3583430;40;20304;-61
2021/06/28 10:52:33;;;;;;;5.68;4.13;;;;;;;;;;3581897;40;20414;-61
2021/06/28 10:55:00;;;;;;;6.65;4.10;;;;;;;;;;3580782;40;20052;-60
2021/06/28 10:57:39;;;;;;;4.70;3.70;;;;;;;;;;3578042;40;20311;-61
2021/06/28 11:00:05;;;;;;;8.65;4.10;;;;;;;;;;3582381;40;20366;-61
2021/06/28 11:02:39;;;;;;;7.47;4.07;;;;;;;;;;3583094;40;20487;-61
2021/06/28 11:05:08;;;;;;;5.93;4.53;;;;;;;;;;3581212;40;20080;-60
2021/06/28 11:07:48;;;;;;;8.88;5.53;;;;;;;;;;3582921;40;20085;-61
2021/06/28 11:10:32;;;;;;;;;;;;;;;;;;3584411;40;20351;-61
2021/06/28 11:13:28;;;;;;;6.88;3.90;;;;;;;;;;3583812;40;19936;-61
2021/06/28 11:16:29;;;;;;;4.40;3.67;;;;;;;;;;3584452;40;20048;-61
2021/06/28 11:18:55;;;;;;;5.03;3.95;;;;;;;;;;3584504;40;20101;-60
2021/06/28 11:21:41;;;;;;;6.78;3.92;;;;;;;;;;3582826;40;20258;-60
2021/06/28 11:24:07;;;;;;;4.53;3.80;;;;;;;;;;3583131;40;20057;-60
2021/06/28 11:26:36;;;;;;;4.78;3.50;;;;;;;;;;3582185;40;20120;-60
2021/06/28 11:29:03;;;;;;;5.80;4.00;;;;;;;;;;3583467;40;20141;-60
2021/06/28 11:31:30;;;;;;;11.65;3.58;;;;;;;;;;3583528;40;20360;-59
2021/06/28 11:33:58;;;;;;;7.15;4.13;;;;;;;;;;3582295;40;20044;-60
2021/06/28 11:36:23;;;;;;;4.40;3.15;;;;;;;;;;3584183;40;20037;-60
2021/06/28 11:38:54;;;;;;;4.30;2.80;;;;;;;;;;3585010;40;20047;-60
2021/06/28 11:41:22;;;;;;;5.25;3.30;;;;;;;;;;3583742;40;20150;-60
2021/06/28 11:43:56;;;;;;;5.25;3.72;;;;;;;;;;3584982;40;20032;-60
2021/06/28 11:46:26;;;;;;;4.50;3.60;;;;;;;;;;3584126;40;20040;-61
2021/06/28 11:49:13;;;;;;;6.28;4.60;;;;;;;;;;3584065;40;20125;-60
2021/06/28 11:51:45;;;;;;;4.90;3.75;;;;;;;;;;3576853;40;20056;-60
2021/06/28 11:54:15;;;;;;;5.00;4.30;;;;;;;;;;3584468;40;20060;-60
2021/06/28 11:56:44;;;;;;;5.55;4.00;;;;;;;;;;3584746;40;20045;-60
2021/06/28 11:59:14;;;;;;;4.18;3.63;;;;;;;;;;3573335;40;20091;-60
2021/06/28 12:01:54;;;;;;;5.45;4.13;;;;;;;;;;3582607;40;20036;-60
2021/06/28 12:04:25;;;;;;;5.38;4.13;;;;;;;;;;3583392;40;20358;-60
2021/06/28 12:06:53;;;;;;;4.63;3.80;;;;;;;;;;3582252;40;20029;-60
2021/06/28 12:09:23;;;;;;;12.75;3.90;;;;;;;;;;3584298;40;20041;-60
2021/06/28 12:12:02;;;;;;;4.07;3.33;;;;;;;;;;3585489;40;20047;-61
2021/06/28 12:14:41;;;;;;;6.05;3.65;;;;;;;;;;3582888;40;20033;-61
2021/06/28 12:17:17;;;;;;;4.43;3.72;;;;;;;;;;3583674;40;20045;-61
2021/06/28 12:19:51;;;;;;;5.25;4.22;;;;;;;;;;3583275;40;20129;-61
2021/06/28 12:22:20;;;;;;;5.20;3.65;;;;;;;;;;3582990;40;20045;-61
2021/06/28 12:24:56;;;;;;;4.50;3.60;;;;;;;;;;3582492;40;20024;-61
2021/06/28 12:27:25;;;;;;;6.38;3.60;;;;;;;;;;3583195;40;20454;-60
2021/06/28 12:29:52;;;;;;;4.28;3.85;;;;;;;;;;3583087;40;20493;-61
2021/06/28 12:32:23;;;;;;;4.82;4.03;;;;;;;;;;3580150;40;20024;-61
2021/06/28 12:34:48;;;;;;;9.50;4.57;;;;;;;;;;3582347;40;20036;-61
2021/06/28 12:37:20;;;;;;;6.82;4.28;;;;;;;;;;3576098;40;20056;-60
2021/06/28 12:39:46;;;;;;;5.13;4.07;;;;;;;;;;3584527;40;20045;-60
2021/06/28 12:42:20;;;;;;;6.25;4.03;;;;;;;;;;3583738;40;20032;-57
2021/06/28 12:44:47;;;;;;;6.32;4.57;;;;;;;;;;3583784;40;20060;-59
2021/06/28 12:47:16;;;;;;;5.75;3.85;;;;;;;;;;3582885;40;20040;-59
2021/06/28 12:49:42;;;;;;;4.90;4.13;;;;;;;;;;3583026;40;20036;-60
2021/06/28 12:52:29;;;;;;;5.75;4.70;;;;;;;;;;3583200;40;20149;-59
2021/06/28 12:55:07;;;;;;;5.18;4.63;;;;;;;;;;3583411;40;20029;-59
2021/06/28 12:57:38;;;;;;;8.70;4.53;;;;;;;;;;3582407;40;20323;-60
2021/06/28 13:00:26;;;;;;;5.63;4.43;;;;;;;;;;3582628;40;20039;-60
2021/06/28 13:03:00;;;;;;;8.65;4.75;;;;;;;;;;3583438;40;20049;-60
2021/06/28 13:05:30;;;;;;;5.13;4.35;;;;;;;;;;3582903;40;20055;-60
2021/06/28 13:08:14;;;;;;;5.63;4.05;;;;;;;;;;3583683;40;20033;-60
2021/06/28 13:11:00;;;;;;;4.82;3.95;;;;;;;;;;3582698;40;20063;-60
2021/06/28 13:13:39;;;;;;;4.72;4.20;;;;;;;;;;3583195;40;20126;-61
2021/06/28 13:19:05;;;;;;;4.60;3.97;;;;;;;;;;3581002;40;20037;-60
2021/06/28 13:21:33;;;;;;;4.90;4.25;;;;;;;;;;3582505;40;20049;-60
2021/06/28 13:24:00;;;;;;;5.65;4.38;;;;;;;;;;3583361;40;20149;-60
2021/06/28 13:26:28;;;;;;;4.75;4.25;;;;;;;;;;3584220;40;20130;-61
2021/06/28 13:28:57;;;;;;;4.90;4.03;;;;;;;;;;3583754;40;20044;-60
2021/06/28 13:31:23;;;;;;;9.77;4.80;;;;;;;;;;3581489;40;20090;-60
2021/06/28 13:34:11;;;;;;;5.55;4.95;;;;;;;;;;3583919;40;20035;-60
2021/06/28 13:36:37;;;;;;;6.13;4.70;;;;;;;;;;3582738;40;20036;-61
2021/06/28 13:39:05;;;;;;;5.35;4.85;;;;;;;;;;3583401;40;20053;-60
2021/06/28 13:41:44;;;;;;;5.63;4.65;;;;;;;;;;3581732;40;20291;-61
2021/06/28 13:44:11;;;;;;;;;;;;;;;;;;3582354;40;20053;-60
2021/06/28 13:46:36;;;;;;;6.38;3.83;;;;;;;;;;3576358;40;19924;-60
2021/06/28 13:49:16;;;;;;;4.80;3.65;;;;;;;;;;3583766;40;20300;-60
2021/06/28 13:51:43;;;;;;;5.57;4.38;;;;;;;;;;3581692;40;20070;-60
2021/06/28 14:07:35;;;;;;;9.60;3.92;;;;;;;;;;3581245;40;20080;-60
2021/06/28 14:10:00;;;;;;;4.53;4.10;;;;;;;;;;3582854;40;20138;-60
2021/06/28 14:12:25;;;;;;;5.43;4.47;;;;;;;;;;3576947;40;20569;-60
2021/06/28 14:14:51;;;;;;;7.55;4.38;;;;;;;;;;3581349;40;20040;-60
2021/06/28 14:17:16;;;;;;;7.78;4.53;;;;;;;;;;3581543;40;20033;-61
2021/06/28 14:19:42;;;;;;;6.07;3.67;;;;;;;;;;3583599;40;20028;-60
2021/06/28 14:22:07;;;;;;;4.93;4.10;;;;;;;;;;3581953;40;20223;-60
2021/06/28 14:24:32;;;;;;;6.30;3.67;;;;;;;;;;3580677;40;20428;-60
2021/06/28 14:26:59;;;;;;;11.20;4.68;;;;;;;;;;3581556;40;20031;-61
2021/06/28 14:29:25;;;;;;;4.85;3.65;;;;;;;;;;3579615;40;20366;-60
2021/06/28 14:31:50;;;;;;;8.98;4.05;;;;;;;;;;3583424;40;20032;-60
2021/06/28 14:34:16;;;;;;;4.35;3.47;;;;;;;;;;3582380;40;20413;-60
2021/06/28 14:36:42;;;;;;;6.75;4.47;;;;;;;;;;3582319;40;20503;-61
2021/06/28 14:39:07;;;;;;;4.97;4.07;;;;;;;;;;3582654;40;20040;-59
2021/06/28 14:41:33;;;;;;;5.07;4.57;;;;;;;;;;3582406;40;20072;-60
2021/06/28 14:43:59;;;;;;;5.20;4.70;;;;;;;;;;3581640;40;20041;-60
2021/06/28 14:46:24;;;;;;;6.95;4.95;;;;;;;;;;3580624;40;20430;-60
2021/06/28 14:48:49;;;;;;;5.82;4.93;;;;;;;;;;3580564;40;20052;-60
2021/06/28 14:51:15;;;;;;;5.13;4.63;;;;;;;;;;3580731;40;20130;-60
2021/06/28 14:53:41;;;;;;;5.20;4.70;;;;;;;;;;3581392;40;20056;-60
2021/06/28 14:56:06;;;;;;;5.35;4.60;;;;;;;;;;3584446;40;20056;-60
2021/06/28 14:58:32;;;;;;;5.15;4.47;;;;;;;;;;3583753;40;20048;-60
2021/06/28 15:00:57;;;;;;;4.95;4.47;;;;;;;;;;3582345;40;20053;-60
2021/06/28 15:03:22;;;;;;;4.85;4.22;;;;;;;;;;3582947;40;20040;-60